createdAt,value
2022-10-06T00:01:17.575Z,99739.94
2022-10-06T00:03:45.495Z,99731.16
2022-10-06T00:06:14.399Z,99733.75
2022-10-06T00:08:42.573Z,99720.38
2022-10-06T00:11:11.503Z,99695.47
2022-10-06T00:13:41.157Z,99710.00
2022-10-06T00:16:17.548Z,99700.28
2022-10-06T00:18:46.505Z,99689.09
2022-10-06T00:21:13.558Z,99700.00
2022-10-06T00:23:40.640Z,99694.03
2022-10-06T00:26:11.534Z,99701.31
2022-10-06T00:28:40.950Z,99704.09
2022-10-06T00:31:07.994Z,99697.91
2022-10-06T00:33:37.859Z,99711.28
2022-10-06T00:36:04.766Z,99702.28
2022-10-06T00:38:31.639Z,99692.44
2022-10-06T00:40:58.618Z,99690.75
2022-10-06T00:43:54.081Z,99685.28
2022-10-06T00:46:24.317Z,99682.59
2022-10-06T00:48:56.564Z,99681.63
2022-10-06T00:51:23.907Z,99675.34
2022-10-06T00:53:50.998Z,99676.19
2022-10-06T00:56:17.741Z,99667.31
2022-10-06T00:58:44.484Z,99673.53
2022-10-06T01:01:13.271Z,99669.88
2022-10-06T01:03:46.701Z,99678.84
2022-10-06T01:06:13.510Z,99680.47
2022-10-06T01:08:40.354Z,99672.44
2022-10-06T01:11:13.329Z,99682.25
2022-10-06T01:13:43.509Z,99676.91
2022-10-06T01:16:12.301Z,99674.22
2022-10-06T01:18:42.882Z,99676.06
2022-10-06T01:21:27.927Z,99663.69
2022-10-06T01:23:57.193Z,99667.94
2022-10-06T01:26:25.324Z,99666.00
2022-10-06T01:28:52.634Z,99663.22
2022-10-06T01:31:20.184Z,99661.53
2022-10-06T01:33:51.678Z,99662.38
2022-10-06T01:36:18.340Z,99642.94
2022-10-06T01:38:44.939Z,99653.63
2022-10-06T01:41:11.584Z,99644.63
2022-10-06T01:43:38.271Z,99632.22
2022-10-06T01:46:05.267Z,99628.59
2022-10-06T01:48:32.193Z,99622.41
2022-10-06T01:50:59.158Z,99625.06
2022-10-06T01:53:25.794Z,99623.25
2022-10-06T01:55:57.238Z,99624.13
2022-10-06T01:58:24.314Z,99630.31
2022-10-06T02:00:51.188Z,99624.22
2022-10-06T02:03:17.773Z,99628.59
2022-10-06T02:05:44.375Z,99626.03
2022-10-06T02:08:11.002Z,99626.91
2022-10-06T02:10:37.637Z,99624.34
2022-10-06T02:13:04.889Z,99627.88
2022-10-06T02:15:33.435Z,99615.59
2022-10-06T02:18:00.098Z,99615.59
2022-10-06T02:20:26.752Z,99612.06
2022-10-06T02:22:53.362Z,99627.13
2022-10-06T02:25:20.068Z,99610.25
2022-10-06T02:27:46.674Z,99616.56
2022-10-06T02:30:16.639Z,99610.38
2022-10-06T02:32:44.301Z,99607.69
2022-10-06T02:35:12.900Z,99596.25
2022-10-06T02:37:41.587Z,99603.44
2022-10-06T02:40:09.942Z,99603.44
2022-10-06T02:42:37.656Z,99594.56
2022-10-06T02:45:06.996Z,99591.16
2022-10-06T02:47:35.452Z,99595.50
2022-10-06T02:50:05.410Z,99599.06
2022-10-06T02:52:37.051Z,99597.47
2022-10-06T02:55:05.747Z,99587.75
2022-10-06T02:57:32.421Z,99597.69
2022-10-06T02:59:59.088Z,99587.97
2022-10-06T03:02:25.885Z,99594.25
2022-10-06T03:04:52.573Z,99599.59
2022-10-06T03:07:19.454Z,99591.72
2022-10-06T03:09:46.034Z,99582.97
2022-10-06T03:12:12.846Z,99587.44
2022-10-06T03:14:39.514Z,99578.59
2022-10-06T03:17:09.557Z,99568.88
2022-10-06T03:19:37.462Z,99575.28
2022-10-06T03:22:05.267Z,99577.97
2022-10-06T03:24:32.442Z,99576.28
2022-10-06T03:26:59.051Z,99575.38
2022-10-06T03:29:25.665Z,99570.19
2022-10-06T03:31:52.354Z,99569.34
2022-10-06T03:34:19.014Z,99557.81
2022-10-06T03:36:45.625Z,99564.09
2022-10-06T03:39:12.283Z,99553.41
2022-10-06T03:41:39.081Z,99564.34
2022-10-06T03:44:06.182Z,99556.34
2022-10-06T03:46:35.914Z,99557.63
2022-10-06T03:49:03.739Z,99547.66
2022-10-06T03:51:31.162Z,99556.78
2022-10-06T03:53:58.476Z,99555.06
2022-10-06T03:56:30.643Z,99564.03
2022-10-06T03:59:02.426Z,99572.91
2022-10-06T04:01:32.261Z,99573.03
2022-10-06T04:04:00.771Z,99596.53
2022-10-06T04:06:29.573Z,99588.25
2022-10-06T04:08:57.013Z,99596.81
2022-10-06T04:11:26.502Z,99612.63
2022-10-06T04:14:00.011Z,99607.09
2022-10-06T04:16:28.158Z,99608.56
2022-10-06T04:18:57.308Z,99618.09
2022-10-06T04:21:25.591Z,99602.63
2022-10-06T04:23:53.812Z,99622.69
2022-10-06T04:26:22.352Z,99612.44
2022-10-06T04:28:49.461Z,99613.72
2022-10-06T04:31:16.165Z,99634.41
2022-10-06T04:33:45.826Z,99617.75
2022-10-06T04:36:26.056Z,99622.47
2022-10-06T04:38:58.678Z,99628.75
2022-10-06T04:41:28.396Z,99631.63
2022-10-06T04:43:56.504Z,99623.84
2022-10-06T04:46:42.086Z,99635.56
2022-10-06T04:49:13.314Z,99639.28
2022-10-06T04:51:47.341Z,99628.84
2022-10-06T04:54:14.419Z,99640.78
2022-10-06T04:56:41.034Z,99636.41
2022-10-06T04:59:07.687Z,99645.34
2022-10-06T05:01:36.594Z,99641.94
2022-10-06T05:04:04.887Z,99645.66
2022-10-06T05:06:34.271Z,99647.78
2022-10-06T05:09:04.179Z,99648.00
2022-10-06T05:11:31.881Z,99653.63
2022-10-06T05:14:03.147Z,99665.34
2022-10-06T05:16:31.345Z,99669.94
2022-10-06T05:18:58.943Z,99675.25
2022-10-06T05:21:29.067Z,99678.88
2022-10-06T05:23:56.282Z,99679.09
2022-10-06T05:26:26.731Z,99691.66
2022-10-06T05:28:53.846Z,99694.41
2022-10-06T05:31:27.253Z,99687.28
2022-10-06T05:33:55.328Z,99694.41
2022-10-06T05:36:25.502Z,99701.66
2022-10-06T05:38:52.773Z,99699.94
2022-10-06T05:41:30.448Z,99701.66
2022-10-06T05:44:01.393Z,99721.25
2022-10-06T05:46:33.246Z,99730.19
2022-10-06T05:49:05.120Z,99725.94
2022-10-06T05:51:34.285Z,99732.13
2022-10-06T05:54:01.862Z,99736.59
2022-10-06T05:56:37.157Z,99735.63
2022-10-06T05:59:07.061Z,99736.59
2022-10-06T06:01:40.031Z,99756.16
2022-10-06T06:04:09.557Z,99737.53
2022-10-06T06:06:45.474Z,99742.97
2022-10-06T06:09:21.217Z,99753.50
2022-10-06T06:11:53.183Z,99761.50
2022-10-06T06:14:45.623Z,99768.44
2022-10-06T06:17:12.258Z,99768.38
2022-10-06T06:19:38.873Z,99770.25
2022-10-06T06:22:05.574Z,99787.94
2022-10-06T06:24:32.241Z,99788.78
2022-10-06T06:26:58.883Z,99787.94
2022-10-06T06:29:27.862Z,99789.75
2022-10-06T06:31:54.518Z,99790.59
2022-10-06T06:34:21.216Z,99803.00
2022-10-06T06:36:53.662Z,99795.19
2022-10-06T06:39:21.392Z,99804.69
2022-10-06T06:41:48.934Z,99812.69
2022-10-06T06:44:15.903Z,99825.91
2022-10-06T06:46:44.950Z,99820.50
2022-10-06T06:49:14.523Z,99821.16
2022-10-06T06:51:44.043Z,99832.53
2022-10-06T06:54:13.035Z,99827.13
2022-10-06T06:56:39.774Z,99851.78
2022-10-06T06:59:16.201Z,99838.44
2022-10-06T07:01:45.870Z,99846.34
2022-10-06T07:04:16.950Z,99847.09
2022-10-06T07:06:57.152Z,99847.75
2022-10-06T07:09:28.859Z,99852.13
2022-10-06T07:11:57.601Z,99851.19
2022-10-06T07:14:24.803Z,99849.66
2022-10-06T07:17:12.423Z,99857.19
2022-10-06T07:19:51.222Z,99862.94
2022-10-06T07:22:42.644Z,99866.53
2022-10-06T07:25:26.554Z,99873.59
2022-10-06T07:27:54.134Z,99888.50
2022-10-06T07:30:28.979Z,99899.94
2022-10-06T07:32:58.479Z,99897.16
2022-10-06T07:35:27.971Z,99883.56
2022-10-06T07:37:54.629Z,99894.88
2022-10-06T07:40:21.258Z,99898.41
2022-10-06T07:42:53.810Z,99913.44
2022-10-06T07:45:38.995Z,99910.69
2022-10-06T07:48:27.187Z,99922.09
2022-10-06T07:50:54.023Z,99932.38
2022-10-06T07:53:20.640Z,99935.63
2022-10-06T07:55:50.629Z,99929.13
2022-10-06T07:58:19.848Z,99928.09
2022-10-06T08:00:48.769Z,99928.75
2022-10-06T08:03:18.374Z,99944.75
2022-10-06T08:05:54.263Z,99935.78
2022-10-06T08:08:24.225Z,99944.63
2022-10-06T08:11:10.209Z,99951.47
2022-10-06T08:13:42.295Z,99956.72
2022-10-06T08:16:15.077Z,99971.75
2022-10-06T08:18:46.369Z,99960.06
2022-10-06T08:21:19.102Z,99967.00
2022-10-06T08:23:48.375Z,99962.53
2022-10-06T08:26:17.224Z,99990.22
2022-10-06T08:28:46.516Z,99970.78
2022-10-06T08:31:15.732Z,99978.91
2022-10-06T08:33:43.899Z,99978.97
2022-10-06T08:36:14.399Z,99993.19
2022-10-06T08:38:42.544Z,99995.94
2022-10-06T08:41:33.671Z,99998.53
2022-10-06T08:44:05.178Z,100005.47
2022-10-06T08:46:39.655Z,100025.69
2022-10-06T08:49:11.913Z,100037.66
2022-10-06T08:52:05.601Z,100035.56
2022-10-06T08:55:02.565Z,100035.38
2022-10-06T08:57:52.259Z,100022.69
2022-10-06T09:00:21.405Z,100041.16
2022-10-06T09:02:50.189Z,100060.38
2022-10-06T09:05:29.636Z,100055.53
2022-10-06T09:08:35.507Z,100065.81
2022-10-06T09:11:23.959Z,100067.16
2022-10-06T09:14:00.290Z,100073.81
2022-10-06T09:16:33.737Z,100075.34
2022-10-06T09:19:09.284Z,100093.81
2022-10-06T09:21:50.739Z,100089.44
2022-10-06T09:24:24.020Z,100090.09
2022-10-06T09:26:53.580Z,100100.59
2022-10-06T09:29:20.206Z,100104.69
2022-10-06T09:31:52.859Z,100106.19
2022-10-06T09:34:53.067Z,100108.66
2022-10-06T09:37:20.981Z,100111.13
2022-10-06T09:39:54.776Z,100112.44
2022-10-06T09:42:28.387Z,100109.59
2022-10-06T09:45:24.969Z,100108.41
2022-10-06T09:47:51.663Z,100125.09
2022-10-06T09:50:27.681Z,100129.66
2022-10-06T09:53:06.375Z,100141.31
2022-10-06T09:55:44.693Z,100138.78
2022-10-06T09:58:22.244Z,100146.97
2022-10-06T10:00:54.522Z,100139.34
2022-10-06T10:03:23.081Z,100139.75
2022-10-06T10:05:52.234Z,100157.47
2022-10-06T10:08:19.011Z,100155.75
2022-10-06T10:10:49.279Z,100165.59
2022-10-06T10:13:22.017Z,100163.69
2022-10-06T10:15:59.201Z,100169.03
2022-10-06T10:18:31.633Z,100173.59
2022-10-06T10:21:08.434Z,100169.88
2022-10-06T10:23:43.302Z,100183.25
2022-10-06T10:26:45.307Z,100174.47
2022-10-06T10:29:43.605Z,100179.41
2022-10-06T10:32:12.844Z,100181.44
2022-10-06T10:34:48.871Z,100184.19
2022-10-06T10:37:24.901Z,100182.66
2022-10-06T10:39:56.619Z,100187.25
2022-10-06T10:42:45.548Z,100190.13
2022-10-06T10:45:50.163Z,100205.38
2022-10-06T10:48:27.738Z,100211.47
2022-10-06T10:51:07.022Z,100220.22
2022-10-06T10:53:54.435Z,100231.09
2022-10-06T10:56:24.285Z,100241.03
2022-10-06T10:58:55.881Z,100225.09
2022-10-06T11:01:37.752Z,100240.25
2022-10-06T11:04:10.228Z,100244.75
2022-10-06T11:07:04.180Z,100246.38
2022-10-06T11:09:39.534Z,100253.25
2022-10-06T11:12:51.363Z,100260.22
2022-10-06T11:15:30.521Z,100246.19
2022-10-06T11:18:06.975Z,100249.34
2022-10-06T11:20:44.200Z,100251.31
2022-10-06T11:23:40.670Z,100255.72
2022-10-06T11:26:25.263Z,100246.28
2022-10-06T11:28:57.787Z,100248.38
2022-10-06T11:31:30.487Z,100247.13
2022-10-06T11:34:03.348Z,100265.66
2022-10-06T11:36:49.474Z,100261.06
2022-10-06T11:39:46.795Z,100269.72
2022-10-06T11:45:16.426Z,100273.53
2022-10-06T11:48:15.474Z,100294.06
2022-10-06T11:50:42.990Z,100312.75
2022-10-06T11:53:28.506Z,100302.25
2022-10-06T11:56:17.184Z,100307.72
2022-10-06T11:58:56.065Z,100301.28
2022-10-06T12:01:34.934Z,100301.22
2022-10-06T12:04:07.824Z,100310.19
2022-10-06T12:06:46.106Z,100327.06
2022-10-06T12:09:38.700Z,100322.88
2022-10-06T12:12:18.892Z,100318.47
2022-10-06T12:17:55.322Z,100311.50
2022-10-06T12:20:55.590Z,100330.13
2022-10-06T12:23:41.457Z,100333.63
2022-10-06T12:26:28.282Z,100346.69
2022-10-06T12:29:20.695Z,100331.34
2022-10-06T12:32:13.112Z,100341.75
2022-10-06T12:34:39.675Z,100346.13
2022-10-06T12:37:44.182Z,100342.72
2022-10-06T12:40:42.285Z,100346.31
2022-10-06T12:43:14.942Z,100350.75
2022-10-06T12:45:46.398Z,100355.31
2022-10-06T12:48:27.601Z,100353.41
2022-10-06T12:51:03.006Z,100361.31
2022-10-06T12:54:10.823Z,100351.41
2022-10-06T12:56:42.429Z,100356.44
2022-10-06T12:59:35.176Z,100363.31
2022-10-06T13:02:07.925Z,100365.78
2022-10-06T13:04:40.612Z,100362.16
2022-10-06T13:07:16.702Z,100351.94
2022-10-06T13:09:46.040Z,100358.72
2022-10-06T13:12:25.627Z,100364.63
2022-10-06T13:15:10.650Z,100374.19
2022-10-06T13:18:15.679Z,100368.53
2022-10-06T13:20:50.507Z,100378.94
2022-10-06T13:23:29.379Z,100373.78
2022-10-06T13:26:06.101Z,100378.47
2022-10-06T13:28:35.709Z,100379.72
2022-10-06T13:31:17.624Z,100377.25
2022-10-06T13:33:46.310Z,100387.16
2022-10-06T13:36:13.624Z,100387.34
2022-10-06T13:38:41.788Z,100387.53
2022-10-06T13:41:11.184Z,100408.19
2022-10-06T13:43:41.530Z,100416.19
2022-10-06T13:46:23.328Z,100426.03
2022-10-06T13:49:03.603Z,100419.63
2022-10-06T13:51:32.628Z,100409.69
2022-10-06T13:54:04.126Z,100414.84
2022-10-06T13:56:39.331Z,100419.25
2022-10-06T13:59:32.532Z,100407.50
2022-10-06T14:02:15.039Z,100416.28
2022-10-06T14:04:41.729Z,100421.72
2022-10-06T14:07:11.968Z,100415.41
2022-10-06T14:09:38.810Z,100423.53
2022-10-06T14:12:18.194Z,100422.88
2022-10-06T14:14:52.570Z,100410.66
2022-10-06T14:17:28.892Z,100408.91
2022-10-06T14:19:55.714Z,100399.50
2022-10-06T14:22:39.273Z,100408.38
2022-10-06T14:25:12.342Z,100400.53
2022-10-06T14:27:38.938Z,100414.88
2022-10-06T14:30:06.237Z,100409.59
2022-10-06T14:32:32.855Z,100417.59
2022-10-06T14:34:59.716Z,100423.06
2022-10-06T14:37:26.328Z,100430.22
2022-10-06T14:39:54.762Z,100431.25
2022-10-06T14:42:24.466Z,100447.19
2022-10-06T14:44:51.136Z,100449.88
2022-10-06T14:47:17.747Z,100452.66
2022-10-06T14:49:45.288Z,100466.97
2022-10-06T14:52:12.166Z,100463.63
2022-10-06T14:54:39.095Z,100476.09
2022-10-06T14:57:05.922Z,100470.97
2022-10-06T14:59:32.711Z,100491.75
2022-10-06T15:02:01.919Z,100491.16
2022-10-06T15:04:28.622Z,100504.78
2022-10-06T15:07:13.846Z,100510.28
2022-10-06T15:09:40.429Z,100516.69
2022-10-06T15:12:07.090Z,100516.88
2022-10-06T15:14:39.389Z,100518.88
2022-10-06T15:17:06.144Z,100536.00
2022-10-06T15:19:34.165Z,100538.94
2022-10-06T15:22:01.232Z,100546.38
2022-10-06T15:24:30.742Z,100546.44
2022-10-06T15:27:15.932Z,100544.81
2022-10-06T15:29:42.582Z,100553.69
2022-10-06T15:32:09.583Z,100551.22
2022-10-06T15:34:37.961Z,100547.75
2022-10-06T15:37:05.208Z,100558.59
2022-10-06T15:42:50.132Z,100561.88
2022-10-06T15:45:17.511Z,100573.41
2022-10-06T15:47:46.414Z,100566.50
2022-10-06T15:50:17.832Z,100583.53
2022-10-06T15:52:45.470Z,100585.44
2022-10-06T15:55:14.328Z,100592.66
2022-10-06T15:57:40.930Z,100588.28
2022-10-06T16:00:09.092Z,100593.78
2022-10-06T16:02:37.464Z,100599.19
2022-10-06T16:05:04.289Z,100612.63
2022-10-06T16:07:36.183Z,100617.19
2022-10-06T16:10:03.489Z,100612.97
2022-10-06T16:12:31.837Z,100625.34
2022-10-06T16:14:58.426Z,100622.69
2022-10-06T16:17:31.232Z,100624.59
2022-10-06T16:19:57.901Z,100627.41
2022-10-06T16:22:24.601Z,100626.63
2022-10-06T16:24:51.263Z,100627.59
2022-10-06T16:27:18.334Z,100625.94
2022-10-06T16:29:46.098Z,100643.06
2022-10-06T16:32:12.682Z,100643.22
2022-10-06T16:34:42.136Z,100641.50
2022-10-06T16:37:08.799Z,100650.53
2022-10-06T16:39:35.570Z,100640.19
2022-10-06T16:42:04.293Z,100650.94
2022-10-06T16:44:30.970Z,100657.13
2022-10-06T16:46:57.606Z,100653.66
2022-10-06T16:49:24.670Z,100661.75
2022-10-06T16:51:51.399Z,100659.19
2022-10-06T16:54:20.941Z,100675.19
2022-10-06T16:56:52.145Z,100668.13
2022-10-06T16:59:25.933Z,100672.69
2022-10-06T17:01:53.378Z,100671.88
2022-10-06T17:04:28.876Z,100678.31
2022-10-06T17:06:56.974Z,100673.06
2022-10-06T17:09:26.051Z,100672.19
2022-10-06T17:11:55.730Z,100686.47
2022-10-06T17:14:23.064Z,100702.47
2022-10-06T17:16:51.715Z,100689.16
2022-10-06T17:19:21.307Z,100684.81
2022-10-06T17:21:50.700Z,100694.63
2022-10-06T17:24:22.808Z,100679.59
2022-10-06T17:26:49.935Z,100691.13
2022-10-06T17:29:21.283Z,100694.63
2022-10-06T17:31:50.476Z,100688.50
2022-10-06T17:34:21.537Z,100691.16
2022-10-06T17:36:51.326Z,100687.75
2022-10-06T17:39:20.541Z,100697.53
2022-10-06T17:41:48.959Z,100693.13
2022-10-06T17:44:21.333Z,100698.56
2022-10-06T17:46:50.761Z,100694.19
2022-10-06T17:49:21.839Z,100704.69
2022-10-06T17:51:51.461Z,100704.69
2022-10-06T17:54:20.829Z,100694.03
2022-10-06T17:56:53.145Z,100711.72
2022-10-06T17:59:25.200Z,100692.97
2022-10-06T18:01:56.384Z,100714.25
2022-10-06T18:04:23.637Z,100706.09
2022-10-06T18:06:53.008Z,100714.81
2022-10-06T18:09:20.089Z,100706.72
2022-10-06T18:11:55.052Z,100714.72
2022-10-06T18:14:24.367Z,100706.72
2022-10-06T18:16:57.719Z,100712.75
2022-10-06T18:19:30.267Z,100711.09
2022-10-06T18:22:00.322Z,100725.22
2022-10-06T18:24:29.673Z,100696.03
2022-10-06T18:26:58.552Z,100703.19
2022-10-06T18:29:29.550Z,100699.72
2022-10-06T18:32:09.184Z,100709.69
2022-10-06T18:37:31.092Z,100719.50
2022-10-06T18:39:57.688Z,100728.44
2022-10-06T18:42:24.704Z,100730.31
2022-10-06T18:45:10.143Z,100735.72
2022-10-06T18:47:55.652Z,100737.53
2022-10-06T18:50:23.461Z,100742.22
2022-10-06T18:52:50.064Z,100742.31
2022-10-06T18:55:17.224Z,100751.22
2022-10-06T18:57:45.215Z,100748.66
2022-10-06T19:00:12.601Z,100744.31
2022-10-06T19:02:39.354Z,100754.22
2022-10-06T19:05:06.191Z,100759.63
2022-10-06T19:07:32.776Z,100757.09
2022-10-06T19:09:59.381Z,100756.22
2022-10-06T19:12:29.027Z,100757.19
2022-10-06T19:14:55.689Z,100751.06
2022-10-06T19:17:24.327Z,100764.63
2022-10-06T19:19:55.493Z,100754.03
2022-10-06T19:22:24.795Z,100751.53
2022-10-06T19:24:52.342Z,100763.97
2022-10-06T19:27:24.388Z,100760.59
2022-10-06T19:29:56.802Z,100757.06
2022-10-06T19:32:27.140Z,100759.81
2022-10-06T19:34:57.909Z,100759.72
2022-10-06T19:37:27.015Z,100767.00
2022-10-06T19:39:53.688Z,100770.63
2022-10-06T19:42:39.247Z,100765.28
2022-10-06T19:45:07.479Z,100786.59
2022-10-06T19:47:34.131Z,100804.44
2022-10-06T19:50:04.806Z,100807.19
2022-10-06T19:52:34.489Z,100792.06
2022-10-06T19:55:01.309Z,100801.00
2022-10-06T19:57:29.370Z,100805.47
2022-10-06T19:59:56.044Z,100797.41
2022-10-06T20:02:22.878Z,100804.44
2022-10-06T20:04:50.527Z,100804.31
2022-10-06T20:07:17.382Z,100812.25
2022-10-06T20:09:45.365Z,100823.75
2022-10-06T20:12:12.358Z,100817.47
2022-10-06T20:14:39.270Z,100824.53
2022-10-06T20:17:06.128Z,100829.81
2022-10-06T20:19:33.115Z,100831.47
2022-10-06T20:22:32.011Z,100829.66
2022-10-06T20:24:59.037Z,100829.84
2022-10-06T20:27:25.822Z,100825.47
2022-10-06T20:29:53.028Z,100834.47
2022-10-06T20:32:19.755Z,100828.28
2022-10-06T20:34:46.363Z,100820.38
2022-10-06T20:37:12.967Z,100812.44
2022-10-06T20:39:58.558Z,100836.56
2022-10-06T20:42:29.811Z,100825.00
2022-10-06T20:44:56.478Z,100835.66
2022-10-06T20:47:23.417Z,100839.16
2022-10-06T20:49:55.377Z,100845.38
2022-10-06T20:52:24.340Z,100837.38
2022-10-06T20:54:51.367Z,100840.88
2022-10-06T20:57:18.202Z,100832.19
2022-10-06T20:59:46.189Z,100838.50
2022-10-06T21:02:13.453Z,100846.50
2022-10-06T21:04:46.042Z,100852.72
2022-10-06T21:07:14.906Z,100850.09
2022-10-06T21:09:41.583Z,100850.22
2022-10-06T21:12:09.233Z,100838.69
2022-10-06T21:14:36.252Z,100853.88
2022-10-06T21:17:02.865Z,100842.44
2022-10-06T21:19:34.152Z,100856.75
2022-10-06T21:22:02.052Z,100847.06
2022-10-06T21:24:31.433Z,100854.31
2022-10-06T21:27:00.559Z,100859.69
2022-10-06T21:29:29.489Z,100859.78
2022-10-06T21:31:56.172Z,100867.91
2022-10-06T21:34:25.467Z,100869.78
2022-10-06T21:36:52.077Z,100859.19
2022-10-06T21:39:19.201Z,100863.66
2022-10-06T21:41:48.022Z,100870.84
2022-10-06T21:44:16.964Z,100867.25
2022-10-06T21:46:51.265Z,100884.03
2022-10-06T21:49:23.580Z,100884.03
2022-10-06T21:51:54.017Z,100866.31
2022-10-06T21:54:21.466Z,100864.56
2022-10-06T21:56:55.702Z,100868.13
2022-10-06T21:59:22.338Z,100866.31
2022-10-06T22:01:54.177Z,100862.84
2022-10-06T22:04:20.798Z,100877.13
2022-10-06T22:06:50.608Z,100874.50
2022-10-06T22:09:19.519Z,100884.16
2022-10-06T22:11:46.369Z,100876.03
2022-10-06T22:14:15.216Z,100866.31
2022-10-06T22:16:42.484Z,100878.69
2022-10-06T22:19:14.990Z,100876.97
2022-10-06T22:21:44.461Z,100880.56
2022-10-06T22:24:17.079Z,100890.28
2022-10-06T22:26:44.748Z,100881.44
2022-10-06T22:29:14.143Z,100892.81
2022-10-06T22:31:44.904Z,100881.16
2022-10-06T22:34:14.454Z,100890.16
2022-10-06T22:36:41.173Z,100900.72
2022-10-06T22:39:08.150Z,100901.59
2022-10-06T22:41:34.893Z,100904.34
2022-10-06T22:44:01.813Z,100903.47
2022-10-06T22:46:35.633Z,100894.63
2022-10-06T22:49:03.759Z,100901.72
2022-10-06T22:51:30.533Z,100908.13
2022-10-06T22:54:02.289Z,100898.56
2022-10-06T22:56:34.048Z,100913.81
2022-10-06T22:59:02.961Z,100921.84
2022-10-06T23:01:30.171Z,100917.41
2022-10-06T23:03:57.846Z,100912.94
2022-10-06T23:06:25.352Z,100918.25
2022-10-06T23:08:54.448Z,100917.41
2022-10-06T23:11:21.802Z,100900.50
2022-10-06T23:13:52.890Z,100915.59
2022-10-06T23:16:20.247Z,100909.47
2022-10-06T23:18:47.201Z,100912.13
2022-10-06T23:21:21.959Z,100912.09
2022-10-06T23:23:53.407Z,100901.56
2022-10-06T23:26:20.810Z,100899.97
2022-10-06T23:28:55.497Z,100913.28
2022-10-06T23:31:24.725Z,100917.78
2022-10-06T23:33:52.017Z,100918.88
2022-10-06T23:36:19.338Z,100918.13
2022-10-06T23:38:46.965Z,100914.66
2022-10-06T23:41:24.586Z,100925.41
2022-10-06T23:43:51.373Z,100933.44
2022-10-06T23:46:20.966Z,100936.16
2022-10-06T23:48:47.598Z,100941.63
2022-10-06T23:51:17.292Z,100950.59
2022-10-06T23:53:44.426Z,100949.66
2022-10-06T23:56:13.882Z,100944.31
2022-10-06T23:58:44.353Z,100939.00
